createdAt,value
2018-12-12T00:01:25.164Z,87.58
2018-12-12T00:03:53.539Z,87.00
2018-12-12T00:06:21.775Z,86.58
2018-12-12T00:08:50.056Z,86.92
2018-12-12T00:11:18.505Z,86.28
2018-12-12T00:13:46.753Z,86.03
2018-12-12T00:16:15.122Z,86.24
2018-12-12T00:18:43.378Z,86.62
2018-12-12T00:21:11.620Z,86.30
2018-12-12T00:23:39.918Z,86.34
2018-12-12T00:26:08.472Z,87.08
2018-12-12T00:28:36.707Z,87.93
2018-12-12T00:31:04.987Z,87.81
2018-12-12T00:33:33.243Z,88.31
2018-12-12T00:36:01.500Z,88.80
2018-12-12T00:38:29.751Z,89.75
2018-12-12T00:40:58.019Z,89.26
2018-12-12T00:43:26.274Z,88.56
2018-12-12T00:45:54.519Z,88.49
2018-12-12T00:48:22.776Z,87.42
2018-12-12T00:50:51.023Z,87.86
2018-12-12T00:53:19.314Z,87.48
2018-12-12T00:55:47.609Z,86.89
2018-12-12T00:58:15.889Z,87.48
2018-12-12T01:00:44.131Z,87.84
2018-12-12T01:03:12.458Z,88.53
2018-12-12T01:08:18.878Z,89.30
2018-12-12T01:10:49.092Z,89.31
2018-12-12T01:13:17.352Z,88.96
2018-12-12T01:15:45.618Z,88.55
2018-12-12T01:18:13.867Z,86.19
2018-12-12T01:20:42.143Z,86.90
2018-12-12T01:23:10.405Z,86.61
2018-12-12T01:25:38.660Z,87.35
2018-12-12T01:28:06.937Z,87.11
2018-12-12T01:30:35.200Z,88.32
2018-12-12T01:33:03.451Z,86.31
2018-12-12T01:35:31.745Z,86.92
2018-12-12T01:38:00.017Z,85.88
2018-12-12T01:40:28.268Z,86.88
2018-12-12T01:42:56.575Z,87.25
2018-12-12T01:45:24.845Z,86.31
2018-12-12T01:47:53.159Z,87.64
2018-12-12T01:50:21.412Z,87.51
2018-12-12T01:52:49.656Z,86.97
2018-12-12T01:55:17.941Z,87.18
2018-12-12T01:57:46.197Z,87.64
2018-12-12T02:00:14.556Z,86.94
2018-12-12T02:02:42.813Z,88.00
2018-12-12T02:05:11.084Z,88.66
2018-12-12T02:07:39.385Z,89.50
2018-12-12T02:10:07.899Z,88.76
2018-12-12T02:12:37.397Z,89.23
2018-12-12T02:15:05.828Z,89.65
2018-12-12T02:17:34.118Z,88.45
2018-12-12T02:20:02.368Z,88.95
2018-12-12T02:22:30.622Z,90.03
2018-12-12T02:24:58.888Z,89.56
2018-12-12T02:27:27.168Z,88.32
2018-12-12T02:29:55.501Z,87.68
2018-12-12T02:32:24.028Z,89.83
2018-12-12T02:34:52.293Z,90.81
2018-12-12T02:37:20.550Z,92.06
2018-12-12T02:39:48.849Z,93.80
2018-12-12T02:42:17.130Z,94.87
2018-12-12T02:44:45.382Z,95.05
2018-12-12T02:47:13.660Z,95.73
2018-12-12T02:49:41.911Z,95.86
2018-12-12T02:52:10.194Z,96.72
2018-12-12T02:54:38.538Z,97.42
2018-12-12T02:57:06.843Z,97.12
2018-12-12T02:59:35.098Z,96.82
2018-12-12T03:02:03.356Z,96.36
2018-12-12T03:04:31.631Z,95.29
2018-12-12T03:06:59.919Z,93.01
2018-12-12T03:09:28.232Z,91.74
2018-12-12T03:11:56.529Z,88.66
2018-12-12T03:14:25.079Z,88.50
2018-12-12T03:16:53.377Z,87.68
2018-12-12T03:19:21.633Z,89.76
2018-12-12T03:21:49.902Z,88.72
2018-12-12T03:24:19.375Z,85.83
2018-12-12T03:26:47.639Z,86.02
2018-12-12T03:29:15.893Z,85.81
2018-12-12T03:31:44.204Z,85.56
2018-12-12T03:34:12.511Z,86.21
2018-12-12T03:36:40.831Z,87.50
2018-12-12T03:39:09.134Z,86.31
2018-12-12T03:41:37.431Z,87.58
2018-12-12T03:44:05.685Z,86.72
2018-12-12T03:46:33.928Z,85.03
2018-12-12T03:49:02.222Z,86.14
2018-12-12T03:51:30.469Z,86.03
2018-12-12T03:53:58.720Z,84.57
2018-12-12T03:56:26.999Z,84.89
2018-12-12T03:58:55.488Z,85.49
2018-12-12T04:01:23.746Z,84.69
2018-12-12T04:03:51.988Z,84.22
2018-12-12T04:06:20.256Z,84.70
2018-12-12T04:08:48.543Z,85.78
2018-12-12T04:11:16.827Z,84.25
2018-12-12T04:13:45.073Z,84.47
2018-12-12T04:16:13.670Z,85.05
2018-12-12T04:18:41.927Z,84.55
2018-12-12T04:21:10.214Z,84.68
2018-12-12T04:23:38.460Z,85.12
2018-12-12T04:26:06.735Z,85.47
2018-12-12T04:28:34.991Z,86.23
2018-12-12T04:31:03.243Z,87.41
2018-12-12T04:33:31.497Z,86.76
2018-12-12T04:35:59.788Z,86.21
2018-12-12T04:38:28.093Z,87.45
2018-12-12T04:40:56.342Z,85.28
2018-12-12T04:43:24.587Z,84.10
2018-12-12T04:45:53.542Z,84.45
2018-12-12T04:48:21.813Z,84.91
2018-12-12T04:50:50.096Z,85.57
2018-12-12T04:53:18.369Z,84.69
2018-12-12T04:55:46.627Z,87.18
2018-12-12T04:58:14.910Z,87.91
2018-12-12T05:00:43.217Z,89.57
2018-12-12T05:03:11.469Z,88.59
2018-12-12T05:05:39.724Z,89.77
2018-12-12T05:08:08.056Z,89.26
2018-12-12T05:10:36.329Z,88.05
2018-12-12T05:13:04.565Z,85.93
2018-12-12T05:15:32.836Z,85.81
2018-12-12T05:18:01.122Z,86.63
2018-12-12T05:20:29.405Z,88.30
2018-12-12T05:22:57.727Z,88.98
2018-12-12T05:25:26.027Z,87.94
2018-12-12T05:27:54.284Z,87.50
2018-12-12T05:30:22.536Z,87.06
2018-12-12T05:32:50.820Z,87.15
2018-12-12T05:35:19.152Z,87.06
2018-12-12T05:37:51.044Z,87.74
2018-12-12T05:40:18.285Z,87.41
2018-12-12T05:42:46.733Z,86.49
2018-12-12T05:45:15.030Z,86.75
2018-12-12T05:47:44.314Z,88.25
2018-12-12T05:50:12.713Z,87.35
2018-12-12T05:52:40.961Z,87.67
2018-12-12T05:55:09.219Z,87.31
2018-12-12T05:57:37.522Z,86.99
2018-12-12T06:00:07.273Z,86.37
2018-12-12T06:02:35.537Z,86.59
2018-12-12T06:05:04.053Z,85.20
2018-12-12T06:07:32.331Z,85.81
2018-12-12T06:10:00.630Z,87.17
2018-12-12T06:12:28.896Z,86.82
2018-12-12T06:14:57.186Z,85.78
2018-12-12T06:17:25.473Z,86.13
2018-12-12T06:19:54.044Z,87.05
2018-12-12T06:22:22.517Z,86.58
2018-12-12T06:24:50.872Z,86.12
2018-12-12T06:27:19.159Z,85.61
2018-12-12T06:29:47.420Z,86.09
2018-12-12T06:32:15.727Z,86.43
2018-12-12T06:34:43.994Z,87.30
2018-12-12T06:37:12.272Z,87.81
2018-12-12T06:39:40.532Z,87.18
2018-12-12T06:42:08.783Z,86.50
2018-12-12T06:44:37.146Z,86.62
2018-12-12T06:47:05.421Z,88.22
2018-12-12T06:49:33.693Z,86.96
2018-12-12T06:52:01.945Z,86.24
2018-12-12T06:54:30.201Z,85.88
2018-12-12T06:56:58.463Z,86.65
2018-12-12T06:59:26.764Z,85.90
2018-12-12T07:01:55.003Z,86.51
2018-12-12T07:04:23.288Z,86.08
2018-12-12T07:06:51.551Z,85.64
2018-12-12T07:09:19.852Z,85.54
2018-12-12T07:11:48.138Z,85.08
2018-12-12T07:14:16.399Z,84.67
2018-12-12T07:16:44.684Z,85.86
2018-12-12T07:19:13.266Z,86.03
2018-12-12T07:21:41.665Z,85.83
2018-12-12T07:24:10.045Z,85.73
2018-12-12T07:26:38.318Z,86.29
2018-12-12T07:29:06.584Z,87.11
2018-12-12T07:31:34.851Z,86.98
2018-12-12T07:34:03.486Z,87.76
2018-12-12T07:36:31.744Z,88.46
2018-12-12T07:39:00.010Z,89.08
2018-12-12T07:41:28.551Z,88.99
2018-12-12T07:43:56.804Z,89.09
2018-12-12T07:46:25.431Z,89.98
2018-12-12T07:48:53.683Z,91.51
2018-12-12T07:51:21.988Z,91.68
2018-12-12T07:53:50.264Z,92.45
2018-12-12T07:56:18.853Z,90.62
2018-12-12T07:58:47.113Z,92.84
2018-12-12T08:01:15.379Z,94.13
2018-12-12T08:03:43.667Z,94.33
2018-12-12T08:06:11.931Z,94.39
2018-12-12T08:08:40.190Z,95.24
2018-12-12T08:11:08.464Z,97.19
2018-12-12T08:13:36.759Z,97.68
2018-12-12T08:16:05.220Z,96.58
2018-12-12T08:18:33.487Z,95.77
2018-12-12T08:21:02.316Z,95.60
2018-12-12T08:26:09.972Z,96.68
2018-12-12T08:28:38.284Z,95.92
2018-12-12T08:31:06.551Z,94.90
2018-12-12T08:33:34.828Z,96.18
2018-12-12T08:36:03.096Z,96.78
2018-12-12T08:38:31.375Z,97.02
2018-12-12T08:40:59.652Z,96.43
2018-12-12T08:43:27.926Z,95.47
2018-12-12T08:45:56.226Z,95.51
2018-12-12T08:48:24.483Z,95.46
2018-12-12T08:50:52.754Z,95.29
2018-12-12T08:53:21.018Z,93.90
2018-12-12T08:55:49.340Z,92.41
2018-12-12T08:58:17.624Z,91.58
2018-12-12T09:00:45.883Z,90.26
2018-12-12T09:03:17.556Z,91.19
2018-12-12T09:05:44.428Z,92.51
2018-12-12T09:08:12.712Z,94.89
2018-12-12T09:10:40.975Z,94.93
2018-12-12T09:13:09.299Z,94.04
2018-12-12T09:15:37.573Z,93.79
2018-12-12T09:18:05.860Z,92.18
2018-12-12T09:20:34.120Z,92.25
2018-12-12T09:23:02.401Z,91.05
2018-12-12T09:25:30.671Z,92.41
2018-12-12T09:27:58.924Z,91.11
2018-12-12T09:30:27.168Z,92.13
2018-12-12T09:32:55.427Z,91.03
2018-12-12T09:35:23.679Z,91.27
2018-12-12T09:37:51.939Z,91.67
2018-12-12T09:40:20.200Z,90.49
2018-12-12T09:42:48.451Z,91.16
2018-12-12T09:45:21.681Z,91.15
2018-12-12T09:47:47.048Z,89.82
2018-12-12T09:50:15.563Z,90.39
2018-12-12T09:52:46.700Z,90.41
2018-12-12T09:55:14.992Z,89.42
2018-12-12T09:57:43.297Z,87.66
2018-12-12T10:00:11.589Z,90.57
2018-12-12T10:02:39.904Z,90.47
2018-12-12T10:05:08.490Z,89.08
2018-12-12T10:07:36.742Z,89.24
2018-12-12T10:10:05.387Z,89.22
2018-12-12T10:12:33.649Z,87.52
2018-12-12T10:15:01.908Z,88.04
2018-12-12T10:17:30.212Z,87.75
2018-12-12T10:19:58.511Z,86.35
2018-12-12T10:22:26.846Z,85.20
2018-12-12T10:24:55.156Z,87.21
2018-12-12T10:27:23.408Z,87.83
2018-12-12T10:29:51.695Z,88.30
2018-12-12T10:34:58.082Z,85.44
2018-12-12T10:37:26.376Z,86.87
2018-12-12T10:39:54.643Z,88.86
2018-12-12T10:42:23.069Z,87.52
2018-12-12T10:44:51.310Z,88.15
2018-12-12T10:47:19.569Z,89.10
2018-12-12T10:49:47.821Z,89.51
2018-12-12T10:52:16.088Z,88.85
2018-12-12T10:54:44.365Z,89.41
2018-12-12T10:57:12.678Z,90.64
2018-12-12T10:59:40.986Z,89.25
2018-12-12T11:02:14.517Z,89.87
2018-12-12T11:04:42.821Z,88.69
2018-12-12T11:07:11.095Z,89.65
2018-12-12T11:09:39.402Z,88.91
2018-12-12T11:12:07.682Z,89.63
2018-12-12T11:14:35.920Z,89.50
2018-12-12T11:17:04.275Z,90.19
2018-12-12T11:19:32.520Z,88.10
2018-12-12T11:22:00.925Z,88.08
2018-12-12T11:24:29.233Z,87.63
2018-12-12T11:26:57.556Z,87.21
2018-12-12T11:29:25.823Z,86.57
2018-12-12T11:31:54.163Z,85.83
2018-12-12T11:34:22.408Z,86.20
2018-12-12T11:36:50.742Z,84.11
2018-12-12T11:39:18.992Z,86.63
2018-12-12T11:41:47.247Z,86.08
2018-12-12T11:44:15.495Z,84.45
2018-12-12T11:46:44.120Z,84.28
2018-12-12T11:49:12.452Z,84.49
2018-12-12T11:51:40.695Z,82.32
2018-12-12T11:54:08.959Z,82.02
2018-12-12T11:56:37.236Z,81.54
2018-12-12T11:59:05.484Z,82.44
2018-12-12T12:01:33.747Z,82.90
2018-12-12T12:04:02.017Z,80.86
2018-12-12T12:06:30.353Z,79.29
2018-12-12T12:08:58.723Z,79.30
2018-12-12T12:11:26.969Z,79.92
2018-12-12T12:13:55.227Z,79.42
2018-12-12T12:16:24.749Z,80.04
2018-12-12T12:18:53.021Z,77.85
2018-12-12T12:21:21.597Z,79.60
2018-12-12T12:23:49.850Z,79.04
2018-12-12T12:26:18.343Z,78.68
2018-12-12T12:28:46.637Z,78.52
2018-12-12T12:31:14.909Z,80.33
2018-12-12T12:33:43.280Z,80.11
2018-12-12T12:36:11.536Z,77.61
2018-12-12T12:38:39.795Z,78.64
2018-12-12T12:41:08.059Z,78.36
2018-12-12T12:43:36.325Z,76.52
2018-12-12T12:46:04.595Z,76.05
2018-12-12T12:48:32.860Z,78.08
2018-12-12T12:51:01.120Z,76.64
2018-12-12T12:53:29.416Z,76.60
2018-12-12T12:55:57.681Z,73.79
2018-12-12T12:58:25.968Z,75.57
2018-12-12T13:00:54.231Z,75.54
2018-12-12T13:03:22.488Z,75.89
2018-12-12T13:05:50.855Z,74.49
2018-12-12T13:08:19.122Z,73.95
2018-12-12T13:10:47.571Z,74.09
2018-12-12T13:13:16.268Z,69.21
2018-12-12T13:15:45.057Z,68.88
2018-12-12T13:18:14.639Z,70.15
2018-12-12T13:20:42.927Z,69.36
2018-12-12T13:23:11.284Z,69.65
2018-12-12T13:25:39.524Z,69.87
2018-12-12T13:28:07.822Z,70.37
2018-12-12T13:30:36.069Z,74.71
2018-12-12T13:33:04.432Z,75.31
2018-12-12T13:35:32.767Z,73.86
2018-12-12T13:38:01.067Z,74.01
2018-12-12T13:40:29.351Z,70.73
2018-12-12T13:42:57.688Z,64.98
2018-12-12T13:45:25.980Z,63.10
2018-12-12T13:47:54.264Z,62.92
2018-12-12T13:50:22.523Z,59.58
2018-12-12T13:52:50.785Z,58.39
2018-12-12T13:55:19.042Z,58.44
2018-12-12T13:57:47.315Z,53.51
2018-12-12T14:00:15.647Z,55.22
2018-12-12T14:02:43.926Z,55.83
2018-12-12T14:05:12.227Z,57.41
2018-12-12T14:07:40.481Z,60.16
2018-12-12T14:10:08.828Z,58.38
2018-12-12T14:12:37.100Z,61.75
2018-12-12T14:15:06.029Z,67.87
2018-12-12T14:17:34.328Z,67.96
2018-12-12T14:20:02.583Z,67.57
2018-12-12T14:22:30.852Z,71.16
2018-12-12T14:24:59.146Z,75.62
2018-12-12T14:27:27.460Z,79.36
2018-12-12T14:29:55.996Z,81.14
2018-12-12T14:32:24.239Z,83.31
2018-12-12T14:34:52.492Z,85.74
2018-12-12T14:37:20.780Z,86.71
2018-12-12T14:39:49.152Z,86.25
2018-12-12T14:42:17.446Z,86.98
2018-12-12T14:44:45.726Z,88.69
2018-12-12T14:47:13.975Z,88.83
2018-12-12T14:52:20.500Z,91.54
2018-12-12T14:54:48.783Z,93.59
2018-12-12T14:57:17.145Z,93.57
2018-12-12T14:59:45.393Z,92.54
2018-12-12T15:02:13.696Z,92.90
2018-12-12T15:04:42.256Z,91.22
2018-12-12T15:07:10.528Z,90.77
2018-12-12T15:09:38.796Z,90.71
2018-12-12T15:12:07.132Z,91.94
2018-12-12T15:14:35.386Z,93.60
2018-12-12T15:17:03.675Z,94.07
2018-12-12T15:19:32.213Z,93.57
2018-12-12T15:22:00.469Z,93.88
2018-12-12T15:24:28.896Z,92.96
2018-12-12T15:26:57.196Z,94.16
2018-12-12T15:29:25.453Z,95.90
2018-12-12T15:31:53.805Z,95.99
2018-12-12T15:34:22.128Z,96.26
2018-12-12T15:36:50.453Z,97.78
2018-12-12T15:39:18.749Z,98.83
2018-12-12T15:41:47.004Z,99.50
2018-12-12T15:44:15.308Z,100.00
2018-12-12T15:49:21.923Z,100.00
2018-12-12T15:51:50.299Z,100.00
2018-12-12T15:54:18.551Z,100.00
2018-12-12T15:56:46.906Z,100.00
2018-12-12T15:59:15.162Z,100.00
2018-12-12T16:01:43.452Z,100.00
2018-12-12T16:04:11.774Z,100.00
2018-12-12T16:06:40.059Z,100.00
2018-12-12T16:09:08.418Z,100.00
2018-12-12T16:11:36.776Z,100.00
2018-12-12T16:14:05.036Z,100.00
2018-12-12T16:16:33.331Z,100.00
2018-12-12T16:19:01.609Z,100.00
2018-12-12T16:21:29.900Z,100.00
2018-12-12T16:23:58.165Z,100.00
2018-12-12T16:26:26.601Z,100.00
2018-12-12T16:28:54.929Z,100.00
2018-12-12T16:31:23.224Z,100.00
2018-12-12T16:33:51.491Z,100.00
2018-12-12T16:36:19.792Z,100.00
2018-12-12T16:41:26.245Z,100.00
2018-12-12T16:43:54.508Z,100.00
2018-12-12T16:46:22.830Z,100.00
2018-12-12T16:48:51.159Z,100.00
2018-12-12T16:51:19.423Z,100.00
2018-12-12T16:53:48.110Z,100.00
2018-12-12T16:56:16.396Z,100.00
2018-12-12T16:58:44.962Z,100.00
2018-12-12T17:01:13.239Z,100.00
2018-12-12T17:03:41.522Z,100.00
2018-12-12T17:06:09.815Z,100.00
2018-12-12T17:08:38.079Z,100.00
2018-12-12T17:11:06.386Z,100.00
2018-12-12T17:13:34.643Z,100.00
2018-12-12T17:16:02.971Z,100.00
2018-12-12T17:18:31.527Z,100.00
2018-12-12T17:20:59.780Z,100.00
2018-12-12T17:23:28.046Z,100.00
2018-12-12T17:25:56.343Z,100.00
2018-12-12T17:28:24.598Z,100.00
2018-12-12T17:30:52.946Z,100.00
2018-12-12T17:33:21.209Z,100.00
2018-12-12T17:35:49.462Z,100.00
2018-12-12T17:38:17.854Z,100.00
2018-12-12T17:40:46.145Z,100.00
2018-12-12T17:43:14.399Z,100.00
2018-12-12T17:45:43.015Z,100.00
2018-12-12T17:48:11.312Z,100.00
2018-12-12T17:50:39.617Z,100.00
2018-12-12T17:53:07.933Z,100.00
2018-12-12T17:55:36.212Z,100.00
2018-12-12T17:58:04.518Z,100.00
2018-12-12T18:00:33.120Z,100.00
2018-12-12T18:03:01.388Z,100.00
2018-12-12T18:05:29.656Z,100.00
2018-12-12T18:07:57.999Z,100.00
2018-12-12T18:10:26.300Z,100.00
2018-12-12T18:12:54.639Z,100.00
2018-12-12T18:15:22.940Z,100.00
2018-12-12T18:17:51.203Z,100.00
2018-12-12T18:20:19.535Z,100.00
2018-12-12T18:22:47.920Z,100.00
2018-12-12T18:25:16.764Z,100.00
2018-12-12T18:27:45.037Z,100.00
2018-12-12T18:30:13.388Z,100.00
2018-12-12T18:32:41.692Z,100.00
2018-12-12T18:35:09.982Z,100.00
2018-12-12T18:37:38.385Z,100.00
2018-12-12T18:42:45.618Z,100.00
2018-12-12T18:45:13.898Z,98.34
2018-12-12T18:47:42.155Z,96.96
2018-12-12T18:50:10.460Z,98.04
2018-12-12T18:52:38.711Z,99.44
2018-12-12T18:55:07.073Z,100.00
2018-12-12T18:57:36.348Z,100.00
2018-12-12T19:00:05.675Z,100.00
2018-12-12T19:02:34.031Z,100.00
2018-12-12T19:05:02.424Z,100.00
2018-12-12T19:07:30.769Z,100.00
2018-12-12T19:09:59.075Z,99.65
2018-12-12T19:15:08.015Z,100.00
2018-12-12T19:17:36.332Z,100.00
2018-12-12T19:20:06.893Z,100.00
2018-12-12T19:22:35.211Z,100.00
2018-12-12T19:25:04.093Z,100.00
2018-12-12T19:27:32.360Z,100.00
2018-12-12T19:30:00.667Z,100.00
2018-12-12T19:32:28.976Z,100.00
2018-12-12T19:34:57.275Z,100.00
2018-12-12T19:37:26.352Z,100.00
2018-12-12T19:39:54.663Z,100.00
2018-12-12T19:42:23.237Z,100.00
2018-12-12T19:44:51.503Z,100.00
2018-12-12T19:47:19.789Z,100.00
2018-12-12T19:49:48.092Z,100.00
2018-12-12T19:52:16.448Z,100.00
2018-12-12T19:54:44.763Z,100.00
2018-12-12T19:57:13.024Z,98.94
2018-12-12T19:59:41.284Z,96.11
2018-12-12T20:02:09.587Z,98.36
2018-12-12T20:04:37.921Z,98.33
2018-12-12T20:07:06.276Z,99.04
2018-12-12T20:09:34.558Z,100.00
2018-12-12T20:12:02.861Z,100.00
2018-12-12T20:14:31.129Z,98.93
2018-12-12T20:16:59.437Z,100.00
2018-12-12T20:19:27.787Z,100.00
2018-12-12T20:21:56.092Z,100.00
2018-12-12T20:24:24.453Z,100.00
2018-12-12T20:26:52.742Z,100.00
2018-12-12T20:29:21.088Z,100.00
2018-12-12T20:31:49.344Z,100.00
2018-12-12T20:34:17.635Z,100.00
2018-12-12T20:36:46.040Z,100.00
2018-12-12T20:39:14.295Z,100.00
2018-12-12T20:44:20.811Z,100.00
2018-12-12T20:46:49.111Z,100.00
2018-12-12T20:49:17.419Z,100.00
2018-12-12T20:51:45.720Z,100.00
2018-12-12T20:54:13.987Z,100.00
2018-12-12T20:56:42.291Z,99.91
2018-12-12T20:59:10.588Z,99.02
2018-12-12T21:01:38.876Z,100.00
2018-12-12T21:04:07.132Z,100.00
2018-12-12T21:06:36.725Z,100.00
2018-12-12T21:09:06.632Z,100.00
2018-12-12T21:11:34.887Z,100.00
2018-12-12T21:14:04.493Z,100.00
2018-12-12T21:16:32.756Z,100.00
2018-12-12T21:19:01.060Z,100.00
2018-12-12T21:21:29.371Z,100.00
2018-12-12T21:23:57.725Z,100.00
2018-12-12T21:26:26.372Z,100.00
2018-12-12T21:28:54.646Z,100.00
2018-12-12T21:31:22.903Z,100.00
2018-12-12T21:33:51.208Z,100.00
2018-12-12T21:36:19.475Z,100.00
2018-12-12T21:38:47.781Z,100.00
2018-12-12T21:41:16.085Z,100.00
2018-12-12T21:46:22.566Z,100.00
2018-12-12T21:48:50.844Z,100.00
2018-12-12T21:51:19.162Z,100.00
2018-12-12T21:53:47.414Z,99.76
2018-12-12T21:56:15.695Z,100.00
2018-12-12T21:58:43.970Z,100.00
2018-12-12T22:01:12.272Z,100.00
2018-12-12T22:03:40.557Z,100.00
2018-12-12T22:06:08.841Z,100.00
2018-12-12T22:08:37.098Z,99.11
2018-12-12T22:11:05.443Z,97.61
2018-12-12T22:13:33.716Z,98.87
2018-12-12T22:16:02.000Z,98.58
2018-12-12T22:18:30.271Z,99.54
2018-12-12T22:20:58.570Z,99.82
2018-12-12T22:23:26.884Z,99.68
2018-12-12T22:25:55.187Z,100.00
2018-12-12T22:28:23.455Z,99.80
2018-12-12T22:30:51.715Z,99.07
2018-12-12T22:33:19.989Z,97.10
2018-12-12T22:35:48.465Z,95.64
2018-12-12T22:38:16.809Z,95.50
2018-12-12T22:40:45.063Z,96.80
2018-12-12T22:43:13.364Z,96.90
2018-12-12T22:45:41.665Z,98.20
2018-12-12T22:48:10.140Z,99.31
2018-12-12T22:50:38.446Z,99.93
2018-12-12T22:53:06.741Z,99.84
2018-12-12T22:55:35.028Z,99.40
2018-12-12T22:58:03.554Z,99.51
2018-12-12T23:00:35.820Z,99.64
2018-12-12T23:03:04.671Z,99.98
2018-12-12T23:05:32.927Z,99.94
2018-12-12T23:08:01.478Z,100.00
2018-12-12T23:10:29.769Z,100.00
2018-12-12T23:12:58.040Z,100.00
2018-12-12T23:15:26.313Z,100.00
2018-12-12T23:17:54.595Z,100.00
2018-12-12T23:20:22.855Z,100.00
2018-12-12T23:22:51.136Z,100.00
2018-12-12T23:25:19.673Z,100.00
2018-12-12T23:27:47.939Z,100.00
2018-12-12T23:30:16.235Z,100.00
2018-12-12T23:32:44.535Z,100.00
2018-12-12T23:35:12.825Z,100.00
2018-12-12T23:37:41.115Z,100.00
2018-12-12T23:40:09.436Z,100.00
2018-12-12T23:42:37.734Z,100.00
2018-12-12T23:45:06.222Z,100.00
2018-12-12T23:47:34.515Z,100.00
2018-12-12T23:50:02.846Z,100.00
2018-12-12T23:52:31.126Z,100.00
2018-12-12T23:54:59.412Z,100.00
